createdAt,value
2019-04-14T00:02:22.882Z,87.77
2019-04-14T00:04:57.211Z,87.83
2019-04-14T00:07:29.864Z,87.92
2019-04-14T00:10:02.938Z,87.95
2019-04-14T00:12:35.834Z,87.96
2019-04-14T00:15:23.446Z,88.04
2019-04-14T00:17:45.575Z,88.06
2019-04-14T00:20:18.610Z,88.08
2019-04-14T00:22:53.407Z,88.01
2019-04-14T00:25:26.222Z,88.01
2019-04-14T00:27:58.632Z,87.98
2019-04-14T00:30:31.632Z,87.96
2019-04-14T00:33:06.271Z,87.95
2019-04-14T00:35:47.172Z,87.93
2019-04-14T00:38:26.067Z,87.89
2019-04-14T00:41:07.965Z,87.90
2019-04-14T00:43:50.600Z,87.90
2019-04-14T00:46:31.237Z,87.90
2019-04-14T00:49:02.823Z,87.96
2019-04-14T00:51:37.743Z,87.94
2019-04-14T00:54:08.941Z,87.97
2019-04-14T00:56:41.894Z,87.96
2019-04-14T00:59:13.893Z,87.94
2019-04-14T01:01:46.011Z,87.97
2019-04-14T01:04:18.713Z,88.04
2019-04-14T01:06:51.737Z,88.09
2019-04-14T01:09:24.044Z,88.18
2019-04-14T01:11:57.428Z,88.19
2019-04-14T01:14:29.866Z,88.16
2019-04-14T01:17:03.151Z,88.15
2019-04-14T01:19:35.308Z,88.12
2019-04-14T01:22:07.495Z,88.26
2019-04-14T01:24:40.383Z,88.38
2019-04-14T01:27:14.598Z,88.52
2019-04-14T01:29:47.369Z,88.61
2019-04-14T01:32:19.969Z,88.69
2019-04-14T01:34:54.472Z,88.73
2019-04-14T01:37:27.507Z,88.76
2019-04-14T01:40:03.194Z,88.81
2019-04-14T01:42:35.632Z,88.86
2019-04-14T01:45:10.057Z,88.85
2019-04-14T01:47:42.380Z,88.83
2019-04-14T01:50:14.925Z,88.83
2019-04-14T01:53:05.416Z,88.82
2019-04-14T01:55:52.672Z,88.84
2019-04-14T01:58:36.666Z,88.88
2019-04-14T02:01:31.046Z,88.93
2019-04-14T02:04:03.102Z,88.92
2019-04-14T02:06:35.625Z,88.93
2019-04-14T02:09:12.046Z,88.94
2019-04-14T02:11:44.567Z,88.98
2019-04-14T02:14:16.898Z,89.06
2019-04-14T02:16:54.108Z,89.13
2019-04-14T02:19:24.081Z,89.18
2019-04-14T02:21:56.449Z,89.26
2019-04-14T02:24:28.913Z,89.36
2019-04-14T02:29:45.174Z,89.50
2019-04-14T02:32:45.418Z,89.58
2019-04-14T02:35:22.274Z,89.64
2019-04-14T02:37:55.948Z,89.72
2019-04-14T02:40:34.792Z,89.79
2019-04-14T02:42:56.355Z,89.79
2019-04-14T02:45:46.780Z,89.80
2019-04-14T02:48:33.428Z,89.78
2019-04-14T02:50:49.557Z,89.70
2019-04-14T02:53:23.893Z,89.69
2019-04-14T02:56:08.238Z,89.71
2019-04-14T02:58:40.406Z,89.76
2019-04-14T03:01:07.001Z,89.72
2019-04-14T03:03:41.551Z,89.74
2019-04-14T03:06:12.194Z,89.75
2019-04-14T03:08:51.410Z,89.70
2019-04-14T03:11:25.791Z,89.66
2019-04-14T03:14:00.444Z,89.62
2019-04-14T03:17:05.649Z,89.55
2019-04-14T03:20:07.107Z,89.49
2019-04-14T03:22:45.891Z,89.39
2019-04-14T03:25:29.645Z,89.33
2019-04-14T03:34:17.624Z,89.28
2019-04-14T03:37:16.239Z,89.30
2019-04-14T03:39:00.523Z,89.24
2019-04-14T03:43:54.980Z,89.14
2019-04-14T03:46:53.087Z,89.07
2019-04-14T03:51:45.141Z,88.96
2019-04-14T03:54:07.954Z,88.98
2019-04-14T03:56:51.774Z,88.94
2019-04-14T03:59:28.065Z,88.93
2019-04-14T04:02:00.878Z,88.97
2019-04-14T04:04:33.799Z,89.02
2019-04-14T04:07:06.564Z,89.05
2019-04-14T04:09:43.684Z,89.02
2019-04-14T04:12:16.050Z,89.10
2019-04-14T04:14:48.586Z,89.15
2019-04-14T04:17:40.892Z,89.18
2019-04-14T04:20:37.776Z,89.15
2019-04-14T04:23:22.775Z,89.19
2019-04-14T04:26:10.451Z,89.24
2019-04-14T04:29:02.973Z,89.26
2019-04-14T04:32:06.031Z,89.27
2019-04-14T04:35:00.199Z,89.29
2019-04-14T04:37:45.501Z,89.37
2019-04-14T04:40:24.594Z,89.46
2019-04-14T04:42:57.105Z,89.53
2019-04-14T04:45:30.614Z,89.56
2019-04-14T04:48:04.455Z,89.66
2019-04-14T04:50:37.299Z,89.61
2019-04-14T04:53:11.526Z,89.68
2019-04-14T04:55:44.152Z,89.68
2019-04-14T04:58:17.275Z,89.77
2019-04-14T05:00:53.929Z,89.86
2019-04-14T05:03:25.398Z,89.92
2019-04-14T05:06:11.841Z,89.97
2019-04-14T05:08:50.316Z,90.00
2019-04-14T05:11:31.665Z,89.98
2019-04-14T05:14:11.614Z,89.94
2019-04-14T05:16:43.996Z,89.97
2019-04-14T05:19:23.757Z,89.96
2019-04-14T05:21:55.905Z,89.92
2019-04-14T05:24:29.074Z,89.90
2019-04-14T05:27:02.044Z,89.93
2019-04-14T05:29:34.462Z,89.95
2019-04-14T05:32:06.670Z,90.07
2019-04-14T05:34:39.011Z,90.13
2019-04-14T05:37:11.708Z,90.14
2019-04-14T05:39:44.093Z,90.11
2019-04-14T05:42:20.167Z,90.13
2019-04-14T05:44:49.976Z,90.19
2019-04-14T05:47:22.145Z,90.25
2019-04-14T05:49:56.190Z,90.27
2019-04-14T05:52:29.731Z,90.26
2019-04-14T05:55:02.527Z,90.20
2019-04-14T05:57:35.197Z,90.12
2019-04-14T06:00:12.471Z,90.08
2019-04-14T06:02:46.241Z,90.03
2019-04-14T06:05:18.980Z,89.98
2019-04-14T06:07:51.308Z,89.90
2019-04-14T06:10:23.446Z,89.85
2019-04-14T06:12:55.452Z,89.82
2019-04-14T06:15:27.438Z,89.82
2019-04-14T06:17:59.422Z,89.85
2019-04-14T06:20:31.604Z,89.91
2019-04-14T06:23:06.368Z,89.97
2019-04-14T06:25:38.315Z,90.09
2019-04-14T06:28:10.373Z,90.18
2019-04-14T06:31:02.077Z,90.20
2019-04-14T06:33:55.697Z,90.27
2019-04-14T06:36:46.674Z,90.36
2019-04-14T06:39:43.249Z,90.27
2019-04-14T06:42:15.334Z,90.28
2019-04-14T06:44:47.258Z,90.22
2019-04-14T06:47:19.305Z,90.26
2019-04-14T06:49:53.204Z,90.21
2019-04-14T06:52:25.259Z,90.14
2019-04-14T06:54:57.293Z,90.03
2019-04-14T06:57:29.794Z,89.89
2019-04-14T07:00:01.908Z,89.78
2019-04-14T07:02:35.615Z,89.63
2019-04-14T07:05:07.807Z,89.45
2019-04-14T07:07:40.253Z,89.21
2019-04-14T07:10:12.248Z,89.10
2019-04-14T07:12:44.256Z,88.98
2019-04-14T07:15:16.207Z,88.93
2019-04-14T07:17:48.194Z,88.87
2019-04-14T07:20:20.141Z,88.79
2019-04-14T07:22:53.628Z,88.67
2019-04-14T07:25:25.944Z,88.61
2019-04-14T07:27:57.918Z,88.46
2019-04-14T07:30:48.809Z,88.32
2019-04-14T07:33:39.251Z,88.19
2019-04-14T07:36:39.613Z,87.97
2019-04-14T07:39:29.011Z,87.71
2019-04-14T07:42:15.763Z,87.50
2019-04-14T07:45:06.565Z,87.42
2019-04-14T07:48:00.493Z,87.25
2019-04-14T07:50:55.956Z,86.99
2019-04-14T07:53:55.634Z,86.76
2019-04-14T07:56:58.860Z,86.62
2019-04-14T07:59:36.944Z,86.30
2019-04-14T08:02:15.301Z,85.97
2019-04-14T08:05:04.377Z,85.80
2019-04-14T08:07:36.492Z,85.62
2019-04-14T08:10:09.204Z,85.22
2019-04-14T08:12:41.389Z,84.98
2019-04-14T08:15:13.866Z,84.78
2019-04-14T08:17:46.062Z,84.79
2019-04-14T08:20:27.315Z,84.74
2019-04-14T08:22:51.808Z,84.34
2019-04-14T08:25:23.819Z,84.26
2019-04-14T08:27:57.852Z,84.12
2019-04-14T08:30:30.144Z,83.84
2019-04-14T08:33:02.981Z,83.39
2019-04-14T08:35:36.247Z,82.45
2019-04-14T08:38:08.620Z,81.61
2019-04-14T08:40:42.323Z,80.98
2019-04-14T08:43:30.683Z,80.01
2019-04-14T08:46:21.314Z,79.23
2019-04-14T08:48:57.614Z,78.36
2019-04-14T08:51:47.166Z,77.35
2019-04-14T08:54:56.363Z,76.49
2019-04-14T08:57:52.284Z,75.42
2019-04-14T09:00:33.805Z,74.42
2019-04-14T09:03:23.880Z,73.07
2019-04-14T09:06:10.530Z,73.56
2019-04-14T09:08:53.435Z,73.09
2019-04-14T09:11:36.731Z,72.24
2019-04-14T09:14:11.603Z,71.59
2019-04-14T09:16:45.025Z,71.29
2019-04-14T09:19:19.331Z,71.48
2019-04-14T09:21:51.343Z,70.46
2019-04-14T09:24:25.110Z,69.11
2019-04-14T09:26:57.173Z,67.99
2019-04-14T09:29:34.480Z,67.66
2019-04-14T09:32:08.471Z,67.13
2019-04-14T09:34:40.575Z,66.80
2019-04-14T09:37:12.532Z,67.08
2019-04-14T09:39:45.078Z,67.36
2019-04-14T09:42:17.488Z,66.78
2019-04-14T09:44:50.991Z,65.87
2019-04-14T09:47:22.997Z,65.57
2019-04-14T09:49:55.138Z,65.36
2019-04-14T09:52:27.476Z,66.12
2019-04-14T09:54:59.480Z,65.84
2019-04-14T09:57:31.538Z,64.42
2019-04-14T10:00:04.883Z,64.51
2019-04-14T10:02:37.086Z,63.13
2019-04-14T10:05:09.499Z,63.33
2019-04-14T10:07:41.598Z,63.59
2019-04-14T10:10:13.857Z,63.36
2019-04-14T10:12:46.325Z,63.10
2019-04-14T10:15:18.358Z,62.99
2019-04-14T10:17:50.328Z,62.77
2019-04-14T10:20:22.343Z,60.74
2019-04-14T10:22:54.504Z,61.50
2019-04-14T10:25:26.603Z,61.14
2019-04-14T10:27:59.053Z,60.43
2019-04-14T10:30:33.527Z,61.12
2019-04-14T10:33:05.581Z,62.15
2019-04-14T10:35:37.677Z,62.23
2019-04-14T10:38:10.223Z,62.60
2019-04-14T10:40:43.420Z,63.64
2019-04-14T10:43:15.543Z,63.50
2019-04-14T10:45:50.415Z,62.86
2019-04-14T10:48:22.511Z,62.32
2019-04-14T10:50:54.510Z,61.80
2019-04-14T10:53:27.329Z,61.89
2019-04-14T10:55:59.396Z,61.41
2019-04-14T10:58:38.030Z,60.98
2019-04-14T11:01:19.397Z,61.85
2019-04-14T11:03:59.698Z,61.30
2019-04-14T11:06:45.323Z,60.92
2019-04-14T11:09:19.211Z,61.57
2019-04-14T11:11:51.203Z,60.65
2019-04-14T11:14:23.984Z,61.37
2019-04-14T11:16:56.076Z,61.57
2019-04-14T11:19:28.029Z,60.68
2019-04-14T11:22:02.750Z,60.49
2019-04-14T11:24:36.334Z,60.28
2019-04-14T11:27:08.302Z,59.53
2019-04-14T11:29:40.257Z,57.65
2019-04-14T11:32:49.222Z,56.69
2019-04-14T11:35:28.751Z,55.64
2019-04-14T11:38:31.736Z,54.53
2019-04-14T11:41:06.999Z,54.70
2019-04-14T11:43:39.092Z,54.62
2019-04-14T11:46:11.044Z,54.68
2019-04-14T11:48:44.818Z,54.39
2019-04-14T11:51:18.248Z,54.16
2019-04-14T11:53:50.099Z,55.84
2019-04-14T11:56:22.038Z,56.17
2019-04-14T11:58:53.890Z,56.64
2019-04-14T12:01:43.922Z,56.60
2019-04-14T12:04:27.967Z,57.47
2019-04-14T12:20:09.311Z,55.79
2019-04-14T12:22:41.214Z,57.97
2019-04-14T12:25:13.130Z,57.12
2019-04-14T12:27:46.538Z,55.46
2019-04-14T12:30:20.083Z,54.42
2019-04-14T12:32:52.329Z,54.38
2019-04-14T12:35:24.297Z,54.53
2019-04-14T12:37:56.823Z,55.54
2019-04-14T12:40:28.906Z,57.79
2019-04-14T12:43:23.227Z,57.58
2019-04-14T12:46:14.800Z,56.61
2019-04-14T12:48:52.118Z,55.98
2019-04-14T12:51:57.876Z,57.14
2019-04-14T12:54:29.828Z,56.30
2019-04-14T12:57:01.718Z,54.28
2019-04-14T12:59:35.857Z,54.07
2019-04-14T13:02:32.767Z,54.51
2019-04-14T13:05:06.424Z,51.79
2019-04-14T13:07:38.324Z,51.54
2019-04-14T13:10:10.645Z,49.21
2019-04-14T13:12:42.563Z,50.43
2019-04-14T13:15:14.722Z,50.99
2019-04-14T13:17:47.103Z,51.13
2019-04-14T13:20:20.661Z,51.76
2019-04-14T13:22:53.450Z,51.64
2019-04-14T13:25:25.923Z,52.57
2019-04-14T13:27:59.282Z,53.58
2019-04-14T13:30:36.008Z,55.19
2019-04-14T13:33:09.287Z,55.13
2019-04-14T13:35:53.362Z,55.89
2019-04-14T13:38:31.551Z,55.46
2019-04-14T13:41:11.913Z,53.98
2019-04-14T13:43:54.946Z,54.21
2019-04-14T13:46:37.475Z,53.89
2019-04-14T13:49:17.444Z,53.65
2019-04-14T13:51:52.046Z,52.15
2019-04-14T13:54:26.540Z,51.41
2019-04-14T13:57:09.698Z,50.57
2019-04-14T13:59:39.185Z,50.46
2019-04-14T14:02:14.289Z,50.96
2019-04-14T14:04:46.239Z,51.14
2019-04-14T14:07:18.563Z,51.44
2019-04-14T14:09:50.529Z,52.09
2019-04-14T14:12:27.843Z,52.73
2019-04-14T14:15:12.013Z,52.76
2019-04-14T14:17:48.648Z,52.07
2019-04-14T14:20:43.631Z,53.01
2019-04-14T14:23:27.823Z,55.49
2019-04-14T14:26:04.106Z,55.87
2019-04-14T14:28:38.543Z,56.74
2019-04-14T14:31:14.043Z,55.69
2019-04-14T14:33:46.044Z,55.54
2019-04-14T14:36:18.028Z,56.02
2019-04-14T14:38:52.761Z,57.81
2019-04-14T14:41:24.748Z,57.93
2019-04-14T14:43:58.321Z,57.82
2019-04-14T14:46:43.646Z,58.46
2019-04-14T14:49:37.441Z,57.73
2019-04-14T14:52:11.552Z,57.51
2019-04-14T14:54:44.700Z,57.35
2019-04-14T14:57:17.161Z,57.26
2019-04-14T14:59:49.671Z,56.92
2019-04-14T15:02:22.659Z,58.02
2019-04-14T15:04:55.900Z,57.08
2019-04-14T15:07:28.187Z,56.68
2019-04-14T15:10:01.603Z,55.94
2019-04-14T15:12:37.099Z,55.72
2019-04-14T15:15:10.742Z,56.00
2019-04-14T15:17:43.218Z,56.78
2019-04-14T15:20:15.492Z,57.67
2019-04-14T15:22:48.752Z,57.45
2019-04-14T15:25:20.926Z,57.38
2019-04-14T15:27:53.455Z,55.97
2019-04-14T15:30:26.125Z,57.24
2019-04-14T15:33:00.026Z,57.00
2019-04-14T15:35:32.252Z,55.76
2019-04-14T15:38:04.904Z,54.36
2019-04-14T15:40:37.118Z,52.58
2019-04-14T15:43:10.308Z,52.74
2019-04-14T15:45:42.762Z,51.75
2019-04-14T15:48:15.450Z,52.67
2019-04-14T15:50:48.313Z,52.77
2019-04-14T15:53:21.642Z,54.77
2019-04-14T15:55:53.679Z,54.48
2019-04-14T15:58:41.093Z,53.63
2019-04-14T16:01:35.482Z,52.93
2019-04-14T16:04:38.284Z,54.13
2019-04-14T16:07:34.427Z,55.17
2019-04-14T16:10:19.574Z,53.37
2019-04-14T16:13:15.316Z,53.26
2019-04-14T16:16:10.052Z,54.64
2019-04-14T16:19:15.104Z,54.26
2019-04-14T16:21:49.666Z,54.37
2019-04-14T16:24:22.054Z,56.61
2019-04-14T16:27:18.486Z,56.05
2019-04-14T16:30:18.991Z,55.56
2019-04-14T16:33:13.592Z,55.94
2019-04-14T16:35:46.628Z,55.47
2019-04-14T16:38:18.989Z,56.59
2019-04-14T16:40:51.139Z,56.46
2019-04-14T16:43:26.086Z,56.04
2019-04-14T16:49:03.004Z,52.59
2019-04-14T16:51:53.611Z,51.71
2019-04-14T16:54:45.754Z,52.97
2019-04-14T16:57:45.563Z,52.76
2019-04-14T17:00:25.633Z,52.78
2019-04-14T17:02:58.199Z,52.23
2019-04-14T17:05:30.820Z,53.24
2019-04-14T17:08:03.088Z,53.68
2019-04-14T17:10:35.613Z,54.61
2019-04-14T17:13:10.991Z,53.73
2019-04-14T17:16:02.049Z,55.17
2019-04-14T17:18:52.065Z,54.74
2019-04-14T17:21:35.377Z,55.21
2019-04-14T17:24:25.145Z,56.20
2019-04-14T17:27:05.965Z,57.08
2019-04-14T17:29:51.157Z,57.83
2019-04-14T17:32:37.022Z,58.40
2019-04-14T17:39:06.540Z,59.85
2019-04-14T17:41:46.318Z,60.90
2019-04-14T17:44:52.403Z,61.26
2019-04-14T17:47:47.185Z,61.51
2019-04-14T17:50:40.488Z,62.14
2019-04-14T17:53:17.540Z,63.55
2019-04-14T17:55:57.729Z,63.36
2019-04-14T17:58:57.800Z,63.94
2019-04-14T18:01:40.967Z,64.02
2019-04-14T18:04:34.291Z,64.24
2019-04-14T18:07:24.295Z,65.50
2019-04-14T18:10:03.057Z,66.55
2019-04-14T18:12:39.772Z,66.34
2019-04-14T18:15:27.942Z,66.01
2019-04-14T18:18:25.318Z,65.94
2019-04-14T18:21:02.865Z,66.41
2019-04-14T18:23:35.005Z,67.06
2019-04-14T18:26:09.588Z,67.76
2019-04-14T18:28:51.029Z,68.44
2019-04-14T18:31:35.452Z,69.77
2019-04-14T18:34:29.580Z,70.14
2019-04-14T18:37:24.136Z,70.06
2019-04-14T18:40:07.522Z,70.74
2019-04-14T18:42:53.145Z,71.61
2019-04-14T18:45:35.170Z,72.00
2019-04-14T18:48:26.464Z,72.29
2019-04-14T18:51:31.301Z,72.55
2019-04-14T18:54:29.556Z,72.37
2019-04-14T18:57:09.757Z,72.28
2019-04-14T19:00:11.324Z,73.19
2019-04-14T19:02:46.272Z,74.37
2019-04-14T19:05:20.986Z,75.32
2019-04-14T19:07:54.957Z,76.07
2019-04-14T19:10:32.124Z,76.47
2019-04-14T19:13:10.818Z,77.14
2019-04-14T19:15:49.511Z,77.57
2019-04-14T19:18:37.070Z,77.74
2019-04-14T19:21:16.398Z,78.00
2019-04-14T19:23:51.289Z,77.58
2019-04-14T19:26:27.091Z,77.27
2019-04-14T19:29:00.311Z,77.59
2019-04-14T19:31:37.567Z,78.00
2019-04-14T19:34:14.758Z,78.01
2019-04-14T19:36:47.620Z,77.52
2019-04-14T19:39:21.768Z,77.05
2019-04-14T19:41:54.986Z,76.74
2019-04-14T19:44:29.472Z,76.72
2019-04-14T19:47:05.936Z,76.53
2019-04-14T19:49:41.729Z,76.70
2019-04-14T19:52:14.637Z,77.44
2019-04-14T19:54:47.690Z,77.51
2019-04-14T19:57:22.199Z,77.34
2019-04-14T20:00:02.056Z,77.24
2019-04-14T20:02:36.570Z,77.12
2019-04-14T20:05:14.374Z,77.04
2019-04-14T20:07:48.371Z,76.90
2019-04-14T20:10:27.807Z,77.13
2019-04-14T20:13:02.255Z,76.97
2019-04-14T20:15:47.337Z,76.48
2019-04-14T20:18:33.558Z,76.70
2019-04-14T20:21:42.643Z,76.62
2019-04-14T20:24:23.130Z,76.67
2019-04-14T20:27:21.573Z,77.16
2019-04-14T20:29:58.132Z,77.67
2019-04-14T20:32:34.241Z,77.56
2019-04-14T20:35:13.286Z,77.38
2019-04-14T20:37:48.468Z,77.39
2019-04-14T20:40:21.139Z,77.01
2019-04-14T20:42:56.471Z,76.69
2019-04-14T20:45:28.890Z,76.46
2019-04-14T20:48:01.135Z,76.59
2019-04-14T20:50:35.649Z,76.97
2019-04-14T20:53:10.386Z,77.07
2019-04-14T20:55:47.207Z,76.43
2019-04-14T20:58:18.474Z,76.06
2019-04-14T21:00:50.677Z,76.36
2019-04-14T21:03:48.061Z,76.48
2019-04-14T21:06:37.589Z,76.16
2019-04-14T21:09:22.422Z,75.67
2019-04-14T21:12:16.548Z,75.65
2019-04-14T21:15:16.297Z,75.74
2019-04-14T21:18:13.794Z,76.27
2019-04-14T21:21:03.769Z,76.48
2019-04-14T21:23:50.970Z,76.60
2019-04-14T21:26:31.284Z,76.45
2019-04-14T21:29:33.864Z,76.39
2019-04-14T21:32:16.902Z,76.45
2019-04-14T21:35:09.578Z,77.00
2019-04-14T21:38:03.923Z,77.35
2019-04-14T21:40:55.171Z,77.54
2019-04-14T21:43:34.008Z,78.43
2019-04-14T21:46:07.249Z,78.60
2019-04-14T21:48:39.558Z,78.38
2019-04-14T21:51:12.336Z,78.36
2019-04-14T21:53:45.644Z,78.37
2019-04-14T21:56:30.938Z,78.30
2019-04-14T21:59:14.996Z,78.70
2019-04-14T22:02:22.250Z,79.49
2019-04-14T22:05:16.244Z,80.28
2019-04-14T22:08:04.842Z,81.04
2019-04-14T22:10:46.782Z,81.43
2019-04-14T22:13:21.308Z,81.63
2019-04-14T22:15:57.016Z,81.40
2019-04-14T22:18:29.364Z,81.03
2019-04-14T22:21:02.979Z,81.01
2019-04-14T22:23:36.803Z,81.60
2019-04-14T22:26:09.586Z,82.17
2019-04-14T22:28:42.235Z,82.19
2019-04-14T22:31:16.813Z,82.40
2019-04-14T22:33:59.149Z,82.63
2019-04-14T22:36:28.569Z,82.74
2019-04-14T22:39:06.556Z,82.68
2019-04-14T22:41:41.743Z,82.72
2019-04-14T22:44:13.974Z,82.74
2019-04-14T22:46:54.012Z,83.17
2019-04-14T22:49:26.916Z,83.63
2019-04-14T22:52:00.705Z,84.06
2019-04-14T22:54:33.360Z,84.39
2019-04-14T22:57:07.519Z,84.57
2019-04-14T22:59:49.677Z,84.57
2019-04-14T23:02:52.138Z,84.69
2019-04-14T23:05:59.258Z,84.73
2019-04-14T23:08:56.596Z,84.74
2019-04-14T23:11:57.741Z,84.87
2019-04-14T23:14:52.407Z,84.58
2019-04-14T23:17:36.278Z,84.52
2019-04-14T23:20:46.528Z,84.56
2019-04-14T23:23:50.042Z,84.57
2019-04-14T23:26:32.250Z,84.51
2019-04-14T23:29:13.512Z,84.25
2019-04-14T23:31:46.962Z,83.94
2019-04-14T23:34:21.829Z,83.77
2019-04-14T23:37:00.275Z,83.51
2019-04-14T23:39:40.891Z,83.34
2019-04-14T23:42:16.191Z,83.15
2019-04-14T23:44:49.818Z,82.97
2019-04-14T23:47:27.694Z,82.97
2019-04-14T23:50:04.947Z,82.86
2019-04-14T23:52:37.445Z,82.80
2019-04-14T23:55:20.819Z,82.78
2019-04-14T23:57:49.123Z,82.72
